createdAt,value
2018-10-21T00:00:06.552Z,8.28
2018-10-21T00:00:18.941Z,8.28
2018-10-21T00:00:31.480Z,8.28
2018-10-21T00:00:43.896Z,8.28
2018-10-21T00:00:56.305Z,8.28
2018-10-21T00:01:08.733Z,8.28
2018-10-21T00:01:21.213Z,8.28
2018-10-21T00:01:33.615Z,8.28
2018-10-21T00:01:46.136Z,8.28
2018-10-21T00:01:58.517Z,8.28
2018-10-21T00:02:11.201Z,8.28
2018-10-21T00:02:24.636Z,8.28
2018-10-21T00:02:37.802Z,8.28
2018-10-21T00:02:50.359Z,8.28
2018-10-21T00:03:03.269Z,8.28
2018-10-21T00:03:16.782Z,8.28
2018-10-21T00:03:29.369Z,8.28
2018-10-21T00:03:41.774Z,8.28
2018-10-21T00:03:54.180Z,8.28
2018-10-21T00:04:06.686Z,8.28
2018-10-21T00:04:19.148Z,8.28
2018-10-21T00:04:31.542Z,8.28
2018-10-21T00:04:43.938Z,8.28
2018-10-21T00:04:56.330Z,8.28
2018-10-21T00:05:08.757Z,8.28
2018-10-21T00:05:21.155Z,8.28
2018-10-21T00:05:33.560Z,8.28
2018-10-21T00:05:45.936Z,8.28
2018-10-21T00:05:58.322Z,8.28
2018-10-21T00:06:10.747Z,11.23
2018-10-21T00:06:23.288Z,11.23
2018-10-21T00:06:35.668Z,11.23
2018-10-21T00:06:48.076Z,11.23
2018-10-21T00:07:00.485Z,11.23
2018-10-21T00:07:12.881Z,11.23
2018-10-21T00:07:25.325Z,11.23
2018-10-21T00:07:37.870Z,11.23
2018-10-21T00:07:50.257Z,11.23
2018-10-21T00:08:02.646Z,11.23
2018-10-21T00:08:15.153Z,11.23
2018-10-21T00:08:27.555Z,11.23
2018-10-21T00:08:39.938Z,11.23
2018-10-21T00:08:52.310Z,11.23
2018-10-21T00:09:05.267Z,11.23
2018-10-21T00:09:18.846Z,11.23
2018-10-21T00:09:31.246Z,11.23
2018-10-21T00:09:43.662Z,11.23
2018-10-21T00:09:56.066Z,11.23
2018-10-21T00:10:08.456Z,11.23
2018-10-21T00:10:20.874Z,11.23
2018-10-21T00:10:33.257Z,11.23
2018-10-21T00:10:45.713Z,11.23
2018-10-21T00:10:58.116Z,11.23
2018-10-21T00:11:10.642Z,11.23
2018-10-21T00:11:23.033Z,11.23
2018-10-21T00:11:35.405Z,11.23
2018-10-21T00:11:47.806Z,11.23
2018-10-21T00:12:00.194Z,11.23
2018-10-21T00:12:12.675Z,11.23
2018-10-21T00:12:25.049Z,11.23
2018-10-21T00:12:37.608Z,11.23
2018-10-21T00:12:50.004Z,11.23
2018-10-21T00:13:02.544Z,11.23
2018-10-21T00:13:14.946Z,11.23
2018-10-21T00:13:27.332Z,11.23
2018-10-21T00:13:39.741Z,11.23
2018-10-21T00:13:52.110Z,11.23
2018-10-21T00:14:04.629Z,11.23
2018-10-21T00:14:17.168Z,11.23
2018-10-21T00:14:29.602Z,11.23
2018-10-21T00:14:41.984Z,11.23
2018-10-21T00:14:54.395Z,11.23
2018-10-21T00:15:07.916Z,11.23
2018-10-21T00:15:21.795Z,11.23
2018-10-21T00:15:37.075Z,11.23
2018-10-21T00:15:51.241Z,11.23
2018-10-21T00:16:03.634Z,11.23
2018-10-21T00:16:16.066Z,8.27
2018-10-21T00:16:28.484Z,8.27
2018-10-21T00:16:40.866Z,8.27
2018-10-21T00:16:53.264Z,8.27
2018-10-21T00:17:05.642Z,8.27
2018-10-21T00:17:18.034Z,8.27
2018-10-21T00:17:30.474Z,8.27
2018-10-21T00:17:43.003Z,8.27
2018-10-21T00:17:55.403Z,8.27
2018-10-21T00:18:07.815Z,8.27
2018-10-21T00:18:20.199Z,8.27
2018-10-21T00:18:32.577Z,8.27
2018-10-21T00:18:44.981Z,8.27
2018-10-21T00:18:57.369Z,8.27
2018-10-21T00:19:09.772Z,8.27
2018-10-21T00:19:22.205Z,8.27
2018-10-21T00:19:34.601Z,8.27
2018-10-21T00:19:46.995Z,8.27
2018-10-21T00:19:59.399Z,8.27
2018-10-21T00:20:11.849Z,8.27
2018-10-21T00:20:24.432Z,8.27
2018-10-21T00:20:36.891Z,8.27
2018-10-21T00:20:49.348Z,8.27
2018-10-21T00:21:02.125Z,8.27
2018-10-21T00:21:16.012Z,8.27
2018-10-21T00:21:28.627Z,8.27
2018-10-21T00:21:41.018Z,8.27
2018-10-21T00:21:53.570Z,8.27
2018-10-21T00:22:05.957Z,8.27
2018-10-21T00:22:18.431Z,8.27
2018-10-21T00:22:30.817Z,8.27
2018-10-21T00:22:43.309Z,8.27
2018-10-21T00:22:55.771Z,8.27
2018-10-21T00:23:08.240Z,8.27
2018-10-21T00:23:20.695Z,8.27
2018-10-21T00:23:33.141Z,8.27
2018-10-21T00:23:45.613Z,8.27
2018-10-21T00:23:58.031Z,8.27
2018-10-21T00:24:10.403Z,8.27
2018-10-21T00:24:22.865Z,8.27
2018-10-21T00:24:35.497Z,8.27
2018-10-21T00:24:47.949Z,8.27
2018-10-21T00:25:00.425Z,8.27
2018-10-21T00:25:12.825Z,8.27
2018-10-21T00:25:25.244Z,8.27
2018-10-21T00:25:37.691Z,8.27
2018-10-21T00:25:50.299Z,8.27
2018-10-21T00:26:02.771Z,8.27
2018-10-21T00:26:15.151Z,8.27
2018-10-21T00:26:27.519Z,8.27
2018-10-21T00:26:39.979Z,8.27
2018-10-21T00:26:52.423Z,8.27
2018-10-21T00:27:05.742Z,8.27
2018-10-21T00:27:19.378Z,8.27
2018-10-21T00:27:31.756Z,8.27
2018-10-21T00:27:44.147Z,8.27
2018-10-21T00:27:56.517Z,8.27
2018-10-21T00:28:08.900Z,8.27
2018-10-21T00:28:21.277Z,8.27
2018-10-21T00:28:33.644Z,8.27
2018-10-21T00:28:46.080Z,8.27
2018-10-21T00:28:58.532Z,8.27
2018-10-21T00:29:10.947Z,8.27
2018-10-21T00:29:23.334Z,8.27
2018-10-21T00:29:35.780Z,8.27
2018-10-21T00:29:48.225Z,8.27
2018-10-21T00:30:00.608Z,8.27
2018-10-21T00:30:12.995Z,8.27
2018-10-21T00:30:25.379Z,8.27
2018-10-21T00:30:38.127Z,8.27
2018-10-21T00:30:50.545Z,8.27
2018-10-21T00:31:02.935Z,8.27
2018-10-21T00:31:15.317Z,8.27
2018-10-21T00:31:27.690Z,8.27
2018-10-21T00:31:40.054Z,8.27
2018-10-21T00:31:52.469Z,8.27
2018-10-21T00:32:04.927Z,8.27
2018-10-21T00:32:17.335Z,8.27
2018-10-21T00:32:29.707Z,8.27
2018-10-21T00:32:42.125Z,8.27
2018-10-21T00:32:54.534Z,8.27
2018-10-21T00:33:07.765Z,8.27
2018-10-21T00:33:21.155Z,8.27
2018-10-21T00:33:33.553Z,8.27
2018-10-21T00:33:46.170Z,8.27
2018-10-21T00:33:58.647Z,8.27
2018-10-21T00:34:11.332Z,8.27
2018-10-21T00:34:23.883Z,8.27
2018-10-21T00:34:36.488Z,8.27
2018-10-21T00:34:48.857Z,8.27
2018-10-21T00:35:01.227Z,8.27
2018-10-21T00:35:13.603Z,8.27
2018-10-21T00:35:25.991Z,8.27
2018-10-21T00:35:38.382Z,8.27
2018-10-21T00:35:50.784Z,8.27
2018-10-21T00:36:03.159Z,8.27
2018-10-21T00:36:15.529Z,13.82
2018-10-21T00:36:27.977Z,13.82
2018-10-21T00:36:40.457Z,13.82
2018-10-21T00:36:52.898Z,13.82
2018-10-21T00:37:05.260Z,13.82
2018-10-21T00:37:17.750Z,13.82
2018-10-21T00:37:30.231Z,13.82
2018-10-21T00:37:42.687Z,13.82
2018-10-21T00:37:55.193Z,13.82
2018-10-21T00:38:07.643Z,13.82
2018-10-21T00:38:20.093Z,13.82
2018-10-21T00:38:32.546Z,13.82
2018-10-21T00:38:44.987Z,13.82
2018-10-21T00:38:57.565Z,13.82
2018-10-21T00:39:10.916Z,13.82
2018-10-21T00:39:24.305Z,13.82
2018-10-21T00:39:36.863Z,13.82
2018-10-21T00:39:49.320Z,13.82
2018-10-21T00:40:01.813Z,13.82
2018-10-21T00:40:14.274Z,13.82
2018-10-21T00:40:26.643Z,13.82
2018-10-21T00:40:39.259Z,13.82
2018-10-21T00:40:51.641Z,13.82
2018-10-21T00:41:04.037Z,13.82
2018-10-21T00:41:16.572Z,13.82
2018-10-21T00:41:29.000Z,13.82
2018-10-21T00:41:41.378Z,13.82
2018-10-21T00:41:53.748Z,13.82
2018-10-21T00:42:06.124Z,13.82
2018-10-21T00:42:18.577Z,13.82
2018-10-21T00:42:30.981Z,13.82
2018-10-21T00:42:43.350Z,13.82
2018-10-21T00:42:55.857Z,13.82
2018-10-21T00:43:08.277Z,13.82
2018-10-21T00:43:20.748Z,13.82
2018-10-21T00:43:33.197Z,13.82
2018-10-21T00:43:45.678Z,13.82
2018-10-21T00:43:58.133Z,13.82
2018-10-21T00:44:10.623Z,13.82
2018-10-21T00:44:23.076Z,13.82
2018-10-21T00:44:35.521Z,13.82
2018-10-21T00:44:47.976Z,13.82
2018-10-21T00:45:00.670Z,13.82
2018-10-21T00:45:13.840Z,13.82
2018-10-21T00:45:26.714Z,13.82
2018-10-21T00:45:39.099Z,13.82
2018-10-21T00:45:51.484Z,13.82
2018-10-21T00:46:03.856Z,13.82
2018-10-21T00:46:16.273Z,9.07
2018-10-21T00:46:28.683Z,9.07
2018-10-21T00:46:41.058Z,9.07
2018-10-21T00:46:53.606Z,9.07
2018-10-21T00:47:06.006Z,9.07
2018-10-21T00:47:18.436Z,9.07
2018-10-21T00:47:31.039Z,9.07
2018-10-21T00:47:43.473Z,9.07
2018-10-21T00:47:56.010Z,9.07
2018-10-21T00:48:08.412Z,9.07
2018-10-21T00:48:20.805Z,9.07
2018-10-21T00:48:33.381Z,9.07
2018-10-21T00:48:45.839Z,9.07
2018-10-21T00:48:58.311Z,9.07
2018-10-21T00:49:10.935Z,9.07
2018-10-21T00:49:23.406Z,9.07
2018-10-21T00:49:35.928Z,9.07
2018-10-21T00:49:48.366Z,9.07
2018-10-21T00:50:00.786Z,9.07
2018-10-21T00:50:13.218Z,9.07
2018-10-21T00:50:25.655Z,9.07
2018-10-21T00:50:38.143Z,9.07
2018-10-21T00:50:50.559Z,9.07
2018-10-21T00:51:03.491Z,9.07
2018-10-21T00:51:16.978Z,9.07
2018-10-21T00:51:29.435Z,9.07
2018-10-21T00:51:41.821Z,9.07
2018-10-21T00:51:54.193Z,9.07
2018-10-21T00:52:06.718Z,9.07
2018-10-21T00:52:19.100Z,9.07
2018-10-21T00:52:31.512Z,9.07
2018-10-21T00:52:43.980Z,9.07
2018-10-21T00:52:56.432Z,9.07
2018-10-21T00:53:08.943Z,9.07
2018-10-21T00:53:21.327Z,9.07
2018-10-21T00:53:33.702Z,9.07
2018-10-21T00:53:46.163Z,9.07
2018-10-21T00:53:58.761Z,9.07
2018-10-21T00:54:11.283Z,9.07
2018-10-21T00:54:23.651Z,9.07
2018-10-21T00:54:36.026Z,9.07
2018-10-21T00:54:48.412Z,9.07
2018-10-21T00:55:00.905Z,9.07
2018-10-21T00:55:13.544Z,9.07
2018-10-21T00:55:26.023Z,9.07
2018-10-21T00:55:38.450Z,9.07
2018-10-21T00:55:50.846Z,9.07
2018-10-21T00:56:03.307Z,9.07
2018-10-21T00:56:15.777Z,10.52
2018-10-21T00:56:28.144Z,10.52
2018-10-21T00:56:40.687Z,10.52
2018-10-21T00:56:53.223Z,10.52
2018-10-21T00:57:06.444Z,10.52
2018-10-21T00:57:20.361Z,10.52
2018-10-21T00:57:32.827Z,10.52
2018-10-21T00:57:45.294Z,10.52
2018-10-21T00:57:57.851Z,10.52
2018-10-21T00:58:10.325Z,10.52
2018-10-21T00:58:22.763Z,10.52
2018-10-21T00:58:35.225Z,10.52
2018-10-21T00:58:47.597Z,10.52
2018-10-21T00:59:00.030Z,10.52
2018-10-21T00:59:12.536Z,10.52
2018-10-21T00:59:24.972Z,10.52
2018-10-21T00:59:37.342Z,10.52
2018-10-21T00:59:49.743Z,10.52
2018-10-21T01:00:02.113Z,10.52
2018-10-21T01:00:14.490Z,10.52
2018-10-21T01:00:27.061Z,10.52
2018-10-21T01:00:39.439Z,10.52
2018-10-21T01:00:51.856Z,10.52
2018-10-21T01:01:04.276Z,10.52
2018-10-21T01:01:16.706Z,10.52
2018-10-21T01:01:29.124Z,10.52
2018-10-21T01:01:41.612Z,10.52
2018-10-21T01:01:53.989Z,10.52
2018-10-21T01:02:06.425Z,10.52
2018-10-21T01:02:18.809Z,10.52
2018-10-21T01:02:31.292Z,10.52
2018-10-21T01:02:43.793Z,10.52
2018-10-21T01:02:56.444Z,10.52
2018-10-21T01:03:09.829Z,10.52
2018-10-21T01:03:23.000Z,10.52
2018-10-21T01:03:35.390Z,10.52
2018-10-21T01:03:47.827Z,10.52
2018-10-21T01:04:00.361Z,10.52
2018-10-21T01:04:13.864Z,10.52
2018-10-21T01:04:26.766Z,10.52
2018-10-21T01:04:39.235Z,10.52
2018-10-21T01:04:51.629Z,10.52
2018-10-21T01:05:04.037Z,10.52
2018-10-21T01:05:16.432Z,10.52
2018-10-21T01:05:28.848Z,10.52
2018-10-21T01:05:41.246Z,10.52
2018-10-21T01:05:53.630Z,10.52
2018-10-21T01:06:06.020Z,10.52
2018-10-21T01:06:18.486Z,12.95
2018-10-21T01:06:30.883Z,12.95
2018-10-21T01:06:43.285Z,12.95
2018-10-21T01:06:55.703Z,12.95
2018-10-21T01:07:08.100Z,12.95
2018-10-21T01:07:20.768Z,12.95
2018-10-21T01:07:33.146Z,12.95
2018-10-21T01:07:45.548Z,12.95
2018-10-21T01:07:57.948Z,12.95
2018-10-21T01:08:10.331Z,12.95
2018-10-21T01:08:22.728Z,12.95
2018-10-21T01:08:35.310Z,12.95
2018-10-21T01:08:48.019Z,12.95
2018-10-21T01:09:00.764Z,12.95
2018-10-21T01:09:14.592Z,12.95
2018-10-21T01:09:27.704Z,12.95
2018-10-21T01:09:40.105Z,12.95
2018-10-21T01:09:52.492Z,12.95
2018-10-21T01:10:04.954Z,12.95
2018-10-21T01:10:17.352Z,12.95
2018-10-21T01:10:29.868Z,12.95
2018-10-21T01:10:42.254Z,12.95
2018-10-21T01:10:54.641Z,12.95
2018-10-21T01:11:07.022Z,12.95
2018-10-21T01:11:19.534Z,12.95
2018-10-21T01:11:31.909Z,12.95
2018-10-21T01:11:44.276Z,12.95
2018-10-21T01:11:56.656Z,12.95
2018-10-21T01:12:09.070Z,12.95
2018-10-21T01:12:21.504Z,12.95
2018-10-21T01:12:34.058Z,12.95
2018-10-21T01:12:46.462Z,12.95
2018-10-21T01:12:58.879Z,12.95
2018-10-21T01:13:11.423Z,12.95
2018-10-21T01:13:23.810Z,12.95
2018-10-21T01:13:36.248Z,12.95
2018-10-21T01:13:48.641Z,12.95
2018-10-21T01:14:01.037Z,12.95
2018-10-21T01:14:13.438Z,12.95
2018-10-21T01:14:25.835Z,12.95
2018-10-21T01:14:38.242Z,12.95
2018-10-21T01:14:50.653Z,12.95
2018-10-21T01:15:03.601Z,12.95
2018-10-21T01:15:17.647Z,12.95
2018-10-21T01:15:30.292Z,12.95
2018-10-21T01:15:42.695Z,12.95
2018-10-21T01:15:55.070Z,12.95
2018-10-21T01:16:07.453Z,12.95
2018-10-21T01:16:19.831Z,13.75
2018-10-21T01:16:32.223Z,13.75
2018-10-21T01:16:44.642Z,13.75
2018-10-21T01:16:57.026Z,13.75
2018-10-21T01:17:09.466Z,13.75
2018-10-21T01:17:21.896Z,13.75
2018-10-21T01:17:34.290Z,13.75
2018-10-21T01:17:46.802Z,13.75
2018-10-21T01:17:59.169Z,13.75
2018-10-21T01:18:11.572Z,13.75
2018-10-21T01:18:23.963Z,13.75
2018-10-21T01:18:36.343Z,13.75
2018-10-21T01:18:48.733Z,13.75
2018-10-21T01:19:01.168Z,13.75
2018-10-21T01:19:13.574Z,13.75
2018-10-21T01:19:26.112Z,13.75
2018-10-21T01:19:38.502Z,13.75
2018-10-21T01:19:50.877Z,13.75
2018-10-21T01:20:03.407Z,13.75
2018-10-21T01:20:15.784Z,13.75
2018-10-21T01:20:28.250Z,13.75
2018-10-21T01:20:40.688Z,13.75
2018-10-21T01:20:53.071Z,13.75
2018-10-21T01:21:06.010Z,13.75
2018-10-21T01:21:19.712Z,13.75
2018-10-21T01:21:32.135Z,13.75
2018-10-21T01:21:44.699Z,13.75
2018-10-21T01:21:57.091Z,13.75
2018-10-21T01:22:09.573Z,13.75
2018-10-21T01:22:21.977Z,13.75
2018-10-21T01:22:34.531Z,13.75
2018-10-21T01:22:46.927Z,13.75
2018-10-21T01:22:59.327Z,13.75
2018-10-21T01:23:11.707Z,13.75
2018-10-21T01:23:24.093Z,13.75
2018-10-21T01:23:36.500Z,13.75
2018-10-21T01:23:48.914Z,13.75
2018-10-21T01:24:01.335Z,13.75
2018-10-21T01:24:13.716Z,13.75
2018-10-21T01:24:26.107Z,13.75
2018-10-21T01:24:38.597Z,13.75
2018-10-21T01:24:51.008Z,13.75
2018-10-21T01:25:03.393Z,13.75
2018-10-21T01:25:15.777Z,13.75
2018-10-21T01:25:28.207Z,13.75
2018-10-21T01:25:40.680Z,13.75
2018-10-21T01:25:53.240Z,13.75
2018-10-21T01:26:05.614Z,13.75
2018-10-21T01:26:18.039Z,15.03
2018-10-21T01:26:30.417Z,15.03
2018-10-21T01:26:42.786Z,15.03
2018-10-21T01:26:55.239Z,15.03
2018-10-21T01:27:08.418Z,15.03
2018-10-21T01:27:22.080Z,15.03
2018-10-21T01:27:34.657Z,15.03
2018-10-21T01:27:47.119Z,15.03
2018-10-21T01:27:59.637Z,15.03
2018-10-21T01:28:12.091Z,15.03
2018-10-21T01:28:24.557Z,15.03
2018-10-21T01:28:36.961Z,15.03
2018-10-21T01:28:49.345Z,15.03
2018-10-21T01:29:01.771Z,15.03
2018-10-21T01:29:14.160Z,15.03
2018-10-21T01:29:26.539Z,15.03
2018-10-21T01:29:38.924Z,15.03
2018-10-21T01:29:51.340Z,15.03
2018-10-21T01:30:03.798Z,15.03
2018-10-21T01:30:16.262Z,15.03
2018-10-21T01:30:28.733Z,15.03
2018-10-21T01:30:41.122Z,15.03
2018-10-21T01:30:53.584Z,15.03
2018-10-21T01:31:06.048Z,15.03
2018-10-21T01:31:18.488Z,15.03
2018-10-21T01:31:31.092Z,15.03
2018-10-21T01:31:43.516Z,15.03
2018-10-21T01:31:55.880Z,15.03
2018-10-21T01:32:08.278Z,15.03
2018-10-21T01:32:20.669Z,15.03
2018-10-21T01:32:33.118Z,15.03
2018-10-21T01:32:45.533Z,15.03
2018-10-21T01:32:58.153Z,15.03
2018-10-21T01:33:11.581Z,15.03
2018-10-21T01:33:24.671Z,15.03
2018-10-21T01:33:37.083Z,15.03
2018-10-21T01:33:49.510Z,15.03
2018-10-21T01:34:01.917Z,15.03
2018-10-21T01:34:14.360Z,15.03
2018-10-21T01:34:26.795Z,15.03
2018-10-21T01:34:39.273Z,15.03
2018-10-21T01:34:51.668Z,15.03
2018-10-21T01:35:04.059Z,15.03
2018-10-21T01:35:16.457Z,15.03
2018-10-21T01:35:28.933Z,15.03
2018-10-21T01:35:41.318Z,15.03
2018-10-21T01:35:53.717Z,15.03
2018-10-21T01:36:06.265Z,15.03
2018-10-21T01:36:20.703Z,17.53
2018-10-21T01:36:37.574Z,17.53
2018-10-21T01:36:51.885Z,17.53
2018-10-21T01:37:05.610Z,17.53
2018-10-21T01:37:19.378Z,17.53
2018-10-21T01:37:32.624Z,17.53
2018-10-21T01:37:45.456Z,17.53
2018-10-21T01:37:59.346Z,17.53
2018-10-21T01:38:12.770Z,17.53
2018-10-21T01:38:26.246Z,17.53
2018-10-21T01:38:38.759Z,17.53
2018-10-21T01:38:51.144Z,17.53
2018-10-21T01:39:04.077Z,17.53
2018-10-21T01:39:17.743Z,17.53
2018-10-21T01:39:30.342Z,17.53
2018-10-21T01:39:42.736Z,17.53
2018-10-21T01:39:55.189Z,17.53
2018-10-21T01:40:07.612Z,17.53
2018-10-21T01:40:20.102Z,17.53
2018-10-21T01:40:32.503Z,17.53
2018-10-21T01:40:44.915Z,17.53
2018-10-21T01:40:57.452Z,17.53
2018-10-21T01:41:09.867Z,17.53
2018-10-21T01:41:22.266Z,17.53
2018-10-21T01:41:34.659Z,17.53
2018-10-21T01:41:47.172Z,17.53
2018-10-21T01:41:59.573Z,17.53
2018-10-21T01:42:11.974Z,17.53
2018-10-21T01:42:24.367Z,17.53
2018-10-21T01:42:36.751Z,17.53
2018-10-21T01:42:49.122Z,17.53
2018-10-21T01:43:01.516Z,17.53
2018-10-21T01:43:14.111Z,17.53
2018-10-21T01:43:26.532Z,17.53
2018-10-21T01:43:38.940Z,17.53
2018-10-21T01:43:51.327Z,17.53
2018-10-21T01:44:03.704Z,17.53
2018-10-21T01:44:16.096Z,17.53
2018-10-21T01:44:28.490Z,17.53
2018-10-21T01:44:40.872Z,17.53
2018-10-21T01:44:53.284Z,17.53
2018-10-21T01:45:06.479Z,17.53
2018-10-21T01:45:20.052Z,17.53
2018-10-21T01:45:32.480Z,17.53
2018-10-21T01:45:44.878Z,17.53
2018-10-21T01:45:57.267Z,17.53
2018-10-21T01:46:09.718Z,17.53
2018-10-21T01:46:22.109Z,13.29
2018-10-21T01:46:34.491Z,13.29
2018-10-21T01:46:47.035Z,13.29
2018-10-21T01:46:59.406Z,13.29
2018-10-21T01:47:11.904Z,13.29
2018-10-21T01:47:24.427Z,13.29
2018-10-21T01:47:37.649Z,13.29
2018-10-21T01:47:50.037Z,13.29
2018-10-21T01:48:02.437Z,13.29
2018-10-21T01:48:15.164Z,13.29
2018-10-21T01:48:27.557Z,13.29
2018-10-21T01:48:39.965Z,13.29
2018-10-21T01:48:52.387Z,13.29
2018-10-21T01:49:04.971Z,13.29
2018-10-21T01:49:17.389Z,13.29
2018-10-21T01:49:29.841Z,13.29
2018-10-21T01:49:42.343Z,13.29
2018-10-21T01:49:54.734Z,13.29
2018-10-21T01:50:07.135Z,13.29
2018-10-21T01:50:19.600Z,13.29
2018-10-21T01:50:32.009Z,13.29
2018-10-21T01:50:44.423Z,13.29
2018-10-21T01:50:56.961Z,13.29
2018-10-21T01:51:10.584Z,13.29
2018-10-21T01:51:24.292Z,13.29
2018-10-21T01:51:36.662Z,13.29
2018-10-21T01:51:49.039Z,13.29
2018-10-21T01:52:01.503Z,13.29
2018-10-21T01:52:13.894Z,13.29
2018-10-21T01:52:26.630Z,13.29
2018-10-21T01:52:39.326Z,13.29
2018-10-21T01:52:51.714Z,13.29
2018-10-21T01:53:04.222Z,13.29
2018-10-21T01:53:16.623Z,13.29
2018-10-21T01:53:29.022Z,13.29
2018-10-21T01:53:41.415Z,13.29
2018-10-21T01:53:53.817Z,13.29
2018-10-21T01:54:06.186Z,13.29
2018-10-21T01:54:18.742Z,13.29
2018-10-21T01:54:31.230Z,13.29
2018-10-21T01:54:43.607Z,13.29
2018-10-21T01:54:55.979Z,13.29
2018-10-21T01:55:08.374Z,13.29
2018-10-21T01:55:20.753Z,13.29
2018-10-21T01:55:33.130Z,13.29
2018-10-21T01:55:45.520Z,13.29
2018-10-21T01:55:57.952Z,13.29
2018-10-21T01:56:10.330Z,13.29
2018-10-21T01:56:22.722Z,14.84
2018-10-21T01:56:35.125Z,14.84
2018-10-21T01:56:47.508Z,14.84
2018-10-21T01:57:00.127Z,14.84
2018-10-21T01:57:13.867Z,14.84
2018-10-21T01:57:26.903Z,14.84
2018-10-21T01:57:39.377Z,14.84
2018-10-21T01:57:51.912Z,14.84
2018-10-21T01:58:04.308Z,14.84
2018-10-21T01:58:16.699Z,14.84
2018-10-21T01:58:29.089Z,14.84
2018-10-21T01:58:41.597Z,14.84
2018-10-21T01:58:54.026Z,14.84
2018-10-21T01:59:06.430Z,14.84
2018-10-21T01:59:18.916Z,14.84
2018-10-21T01:59:31.317Z,14.84
2018-10-21T01:59:43.691Z,14.84
2018-10-21T01:59:56.070Z,14.84
2018-10-21T02:00:08.451Z,14.84
2018-10-21T02:00:20.870Z,14.84
2018-10-21T02:00:33.425Z,14.84
2018-10-21T02:00:45.954Z,14.84
2018-10-21T02:00:58.369Z,14.84
2018-10-21T02:01:10.791Z,14.84
2018-10-21T02:01:23.218Z,14.84
2018-10-21T02:01:35.732Z,14.84
2018-10-21T02:01:48.131Z,14.84
2018-10-21T02:02:00.537Z,14.84
2018-10-21T02:02:12.949Z,14.84
2018-10-21T02:02:25.343Z,14.84
2018-10-21T02:02:37.729Z,14.84
2018-10-21T02:02:50.117Z,14.84
2018-10-21T02:03:03.144Z,14.84
2018-10-21T02:03:16.874Z,14.84
2018-10-21T02:03:29.939Z,14.84
2018-10-21T02:03:42.317Z,14.84
2018-10-21T02:03:54.732Z,14.84
2018-10-21T02:04:07.148Z,14.84
2018-10-21T02:04:19.625Z,14.84
2018-10-21T02:04:32.020Z,14.84
2018-10-21T02:04:44.414Z,14.84
2018-10-21T02:04:56.794Z,14.84
2018-10-21T02:05:09.194Z,14.84
2018-10-21T02:05:21.688Z,14.84
2018-10-21T02:05:34.085Z,14.84
2018-10-21T02:05:46.493Z,14.84
2018-10-21T02:05:58.882Z,14.84
2018-10-21T02:06:11.275Z,14.84
2018-10-21T02:06:23.836Z,10.69
2018-10-21T02:06:36.238Z,10.69
2018-10-21T02:06:48.633Z,10.69
2018-10-21T02:07:01.034Z,10.69
2018-10-21T02:07:13.427Z,10.69
2018-10-21T02:07:25.827Z,10.69
2018-10-21T02:07:38.227Z,10.69
2018-10-21T02:07:50.671Z,10.69
2018-10-21T02:08:03.080Z,10.69
2018-10-21T02:08:15.481Z,10.69
2018-10-21T02:08:27.884Z,10.69
2018-10-21T02:08:40.315Z,10.69
2018-10-21T02:08:52.696Z,10.69
2018-10-21T02:09:05.716Z,10.69
2018-10-21T02:09:19.673Z,10.69
2018-10-21T02:09:32.074Z,10.69
2018-10-21T02:09:44.461Z,10.69
2018-10-21T02:09:56.876Z,10.69
2018-10-21T02:10:09.273Z,10.69
2018-10-21T02:10:21.678Z,10.69
2018-10-21T02:10:34.083Z,10.69
2018-10-21T02:10:46.538Z,10.69
2018-10-21T02:10:58.950Z,10.69
2018-10-21T02:11:11.505Z,10.69
2018-10-21T02:11:23.896Z,10.69
2018-10-21T02:11:36.310Z,10.69
2018-10-21T02:11:48.738Z,10.69
2018-10-21T02:12:01.133Z,10.69
2018-10-21T02:12:13.517Z,10.69
2018-10-21T02:12:25.904Z,10.69
2018-10-21T02:12:38.349Z,10.69
2018-10-21T02:12:50.727Z,10.69
2018-10-21T02:13:03.223Z,10.69
2018-10-21T02:13:15.983Z,10.69
2018-10-21T02:13:28.397Z,10.69
2018-10-21T02:13:40.787Z,10.69
2018-10-21T02:13:53.193Z,10.69
2018-10-21T02:14:05.791Z,10.69
2018-10-21T02:14:19.221Z,10.69
2018-10-21T02:14:31.692Z,10.69
2018-10-21T02:14:44.112Z,10.69
2018-10-21T02:14:56.683Z,10.69
2018-10-21T02:15:10.094Z,10.69
2018-10-21T02:15:23.401Z,10.69
2018-10-21T02:15:35.844Z,10.69
2018-10-21T02:15:48.222Z,10.69
2018-10-21T02:16:00.605Z,10.69
2018-10-21T02:16:12.995Z,10.69
2018-10-21T02:16:25.380Z,14.87
2018-10-21T02:16:37.750Z,14.87
2018-10-21T02:16:50.143Z,14.87
2018-10-21T02:17:02.533Z,14.87
2018-10-21T02:17:14.933Z,14.87
2018-10-21T02:17:27.327Z,14.87
2018-10-21T02:17:39.798Z,14.87
2018-10-21T02:17:52.195Z,14.87
2018-10-21T02:18:04.620Z,14.87
2018-10-21T02:18:16.996Z,14.87
2018-10-21T02:18:29.495Z,14.87
2018-10-21T02:18:42.228Z,14.87
2018-10-21T02:18:54.631Z,14.87
2018-10-21T02:19:07.022Z,14.87
2018-10-21T02:19:19.550Z,14.87
2018-10-21T02:19:31.922Z,14.87
2018-10-21T02:19:44.294Z,14.87
2018-10-21T02:19:56.664Z,14.87
2018-10-21T02:20:09.045Z,14.87
2018-10-21T02:20:21.572Z,14.87
2018-10-21T02:20:33.970Z,14.87
2018-10-21T02:20:46.365Z,14.87
2018-10-21T02:20:59.095Z,14.87
2018-10-21T02:21:12.544Z,14.87
2018-10-21T02:21:25.942Z,14.87
2018-10-21T02:21:38.329Z,14.87
2018-10-21T02:21:50.810Z,14.87
2018-10-21T02:22:03.192Z,14.87
2018-10-21T02:22:15.700Z,14.87
2018-10-21T02:22:28.256Z,14.87
2018-10-21T02:22:40.670Z,14.87
2018-10-21T02:22:53.085Z,14.87
2018-10-21T02:23:05.473Z,14.87
2018-10-21T02:23:17.867Z,14.87
2018-10-21T02:23:30.268Z,14.87
2018-10-21T02:23:42.676Z,14.87
2018-10-21T02:23:55.072Z,14.87
2018-10-21T02:24:07.461Z,14.87
2018-10-21T02:24:19.860Z,14.87
2018-10-21T02:24:32.412Z,14.87
2018-10-21T02:24:44.854Z,14.87
2018-10-21T02:24:57.240Z,14.87
2018-10-21T02:25:09.630Z,14.87
2018-10-21T02:25:22.053Z,14.87
2018-10-21T02:25:34.444Z,14.87
2018-10-21T02:25:46.871Z,14.87
2018-10-21T02:25:59.408Z,14.87
2018-10-21T02:26:12.043Z,14.87
2018-10-21T02:26:25.403Z,11.46
2018-10-21T02:26:39.339Z,11.46
2018-10-21T02:26:52.783Z,11.46
2018-10-21T02:27:06.375Z,11.46
2018-10-21T02:27:20.156Z,11.46
2018-10-21T02:27:32.710Z,11.46
2018-10-21T02:27:45.092Z,11.46
2018-10-21T02:27:57.485Z,11.46
2018-10-21T02:28:10.354Z,11.46
2018-10-21T02:28:22.770Z,11.46
2018-10-21T02:28:35.283Z,11.46
2018-10-21T02:28:47.699Z,11.46
2018-10-21T02:29:00.081Z,11.46
2018-10-21T02:29:12.461Z,11.46
2018-10-21T02:29:24.846Z,11.46
2018-10-21T02:29:37.263Z,11.46
2018-10-21T02:29:49.672Z,11.46
2018-10-21T02:30:02.084Z,11.46
2018-10-21T02:30:14.498Z,11.46
2018-10-21T02:30:26.965Z,11.46
2018-10-21T02:30:39.434Z,11.46
2018-10-21T02:30:51.849Z,11.46
2018-10-21T02:31:04.304Z,11.46
2018-10-21T02:31:17.079Z,11.46
2018-10-21T02:31:29.484Z,11.46
2018-10-21T02:31:41.872Z,11.46
2018-10-21T02:31:54.291Z,11.46
2018-10-21T02:32:06.693Z,11.46
2018-10-21T02:32:19.109Z,11.46
2018-10-21T02:32:31.499Z,11.46
2018-10-21T02:32:43.909Z,11.46
2018-10-21T02:32:56.499Z,11.46
2018-10-21T02:33:10.411Z,11.46
2018-10-21T02:33:24.727Z,11.46
2018-10-21T02:33:39.929Z,11.46
2018-10-21T02:33:53.611Z,11.46
2018-10-21T02:34:06.038Z,11.46
2018-10-21T02:34:18.448Z,11.46
2018-10-21T02:34:30.833Z,11.46
2018-10-21T02:34:43.519Z,11.46
2018-10-21T02:34:55.910Z,11.46
2018-10-21T02:35:08.335Z,11.46
2018-10-21T02:35:20.746Z,11.46
2018-10-21T02:35:33.150Z,11.46
2018-10-21T02:35:45.574Z,11.46
2018-10-21T02:35:57.967Z,11.46
2018-10-21T02:36:10.393Z,11.46
2018-10-21T02:36:22.816Z,16.27
2018-10-21T02:36:35.229Z,16.27
2018-10-21T02:36:47.629Z,16.27
2018-10-21T02:37:00.039Z,16.27
2018-10-21T02:37:12.436Z,16.27
2018-10-21T02:37:24.850Z,16.27
2018-10-21T02:37:37.246Z,16.27
2018-10-21T02:37:49.653Z,16.27
2018-10-21T02:38:02.077Z,16.27
2018-10-21T02:38:14.503Z,16.27
2018-10-21T02:38:26.946Z,16.27
2018-10-21T02:38:39.324Z,16.27
2018-10-21T02:38:51.768Z,16.27
2018-10-21T02:39:04.841Z,16.27
2018-10-21T02:39:18.711Z,16.27
2018-10-21T02:39:31.695Z,16.27
2018-10-21T02:39:44.121Z,16.27
2018-10-21T02:39:56.550Z,16.27
2018-10-21T02:40:08.985Z,16.27
2018-10-21T02:40:21.536Z,16.27
2018-10-21T02:40:34.089Z,16.27
2018-10-21T02:40:46.495Z,16.27
2018-10-21T02:40:58.918Z,16.27
2018-10-21T02:41:11.398Z,16.27
2018-10-21T02:41:23.793Z,16.27
2018-10-21T02:41:36.204Z,16.27
2018-10-21T02:41:48.617Z,16.27
2018-10-21T02:42:01.047Z,16.27
2018-10-21T02:42:13.459Z,16.27
2018-10-21T02:42:26.076Z,16.27
2018-10-21T02:42:38.496Z,16.27
2018-10-21T02:42:50.938Z,16.27